createdAt,value
2023-05-22T00:01:56.713Z,10.68
2023-05-22T00:04:23.823Z,13.15
2023-05-22T00:06:50.769Z,12.93
2023-05-22T00:09:17.877Z,12.30
2023-05-22T00:11:44.912Z,11.75
2023-05-22T00:14:13.657Z,12.85
2023-05-22T00:16:41.353Z,11.75
2023-05-22T00:19:13.739Z,11.00
2023-05-22T00:21:40.933Z,11.30
2023-05-22T00:24:08.125Z,10.65
2023-05-22T00:26:35.085Z,11.88
2023-05-22T00:29:02.293Z,11.13
2023-05-22T00:31:29.322Z,11.98
2023-05-22T00:33:56.385Z,11.18
2023-05-22T00:36:23.334Z,10.95
2023-05-22T00:38:50.180Z,11.55
2023-05-22T00:41:17.057Z,11.68
2023-05-22T00:43:45.544Z,11.63
2023-05-22T00:46:12.675Z,10.20
2023-05-22T00:48:39.755Z,10.55
2023-05-22T00:51:08.105Z,11.27
2023-05-22T00:53:35.238Z,11.13
2023-05-22T00:56:02.846Z,11.20
2023-05-22T00:58:30.629Z,11.18
2023-05-22T01:00:57.549Z,11.32
2023-05-22T01:03:26.980Z,9.68
2023-05-22T01:05:57.885Z,10.10
2023-05-22T01:08:24.951Z,9.38
2023-05-22T01:10:58.946Z,9.63
2023-05-22T01:13:39.262Z,9.13
2023-05-22T01:16:18.791Z,10.43
2023-05-22T01:19:10.189Z,11.07
2023-05-22T01:21:46.390Z,10.88
2023-05-22T01:24:36.187Z,12.07
2023-05-22T01:27:08.649Z,10.82
2023-05-22T01:30:04.214Z,12.77
2023-05-22T01:32:34.776Z,11.48
2023-05-22T01:35:05.374Z,11.80
2023-05-22T01:37:32.892Z,11.55
2023-05-22T01:40:00.493Z,11.75
2023-05-22T01:42:27.787Z,10.88
2023-05-22T01:44:54.589Z,10.73
2023-05-22T01:47:22.816Z,11.55
2023-05-22T01:49:49.985Z,11.32
2023-05-22T01:52:45.333Z,10.38
2023-05-22T01:55:20.272Z,11.32
2023-05-22T01:57:57.132Z,10.90
2023-05-22T02:00:26.477Z,10.75
2023-05-22T02:03:02.842Z,9.82
2023-05-22T02:05:32.780Z,10.43
2023-05-22T02:08:02.127Z,10.85
2023-05-22T02:10:30.404Z,10.77
2023-05-22T02:12:57.776Z,11.20
2023-05-22T02:15:24.649Z,12.00
2023-05-22T02:17:53.325Z,11.88
2023-05-22T02:20:20.330Z,11.63
2023-05-22T02:22:47.827Z,11.25
2023-05-22T02:25:16.917Z,10.48
2023-05-22T02:27:45.792Z,10.35
2023-05-22T02:30:13.738Z,11.63
2023-05-22T02:32:42.960Z,10.48
2023-05-22T02:35:10.282Z,9.90
2023-05-22T02:37:37.416Z,11.07
2023-05-22T02:40:08.075Z,10.57
2023-05-22T02:42:34.943Z,11.95
2023-05-22T02:45:02.470Z,10.82
2023-05-22T02:47:29.970Z,11.90
2023-05-22T02:49:58.052Z,12.13
2023-05-22T02:52:25.216Z,11.45
2023-05-22T02:54:52.056Z,11.95
2023-05-22T02:57:19.061Z,11.15
2023-05-22T02:59:46.105Z,11.63
2023-05-22T03:02:12.954Z,11.45
2023-05-22T03:04:40.908Z,10.88
2023-05-22T03:07:08.062Z,12.13
2023-05-22T03:09:34.975Z,12.68
2023-05-22T03:12:01.839Z,11.63
2023-05-22T03:14:29.268Z,12.07
2023-05-22T03:16:56.517Z,12.13
2023-05-22T03:19:23.766Z,11.63
2023-05-22T03:21:50.981Z,12.57
2023-05-22T03:24:17.969Z,11.65
2023-05-22T03:26:44.838Z,12.18
2023-05-22T03:29:11.788Z,11.98
2023-05-22T03:31:38.631Z,12.43
2023-05-22T03:34:06.078Z,11.90
2023-05-22T03:36:35.965Z,12.07
2023-05-22T03:39:03.649Z,12.73
2023-05-22T03:41:30.904Z,12.82
2023-05-22T03:43:58.333Z,13.55
2023-05-22T03:46:25.647Z,12.50
2023-05-22T03:48:52.648Z,13.52
2023-05-22T03:51:20.396Z,14.52
2023-05-22T03:53:47.541Z,14.73
2023-05-22T03:56:14.415Z,13.02
2023-05-22T03:58:41.292Z,12.25
2023-05-22T04:01:09.902Z,11.07
2023-05-22T04:03:37.850Z,10.85
2023-05-22T04:06:05.776Z,10.88
2023-05-22T04:08:32.848Z,11.77
2023-05-22T04:10:59.885Z,12.38
2023-05-22T04:13:27.193Z,12.45
2023-05-22T04:15:54.125Z,12.10
2023-05-22T04:18:21.069Z,12.30
2023-05-22T04:20:48.135Z,13.00
2023-05-22T04:23:14.998Z,13.60
2023-05-22T04:25:41.852Z,12.05
2023-05-22T04:28:09.284Z,12.90
2023-05-22T04:30:40.233Z,13.38
2023-05-22T04:33:08.450Z,12.30
2023-05-22T04:35:35.434Z,12.63
2023-05-22T04:38:03.674Z,13.15
2023-05-22T04:40:33.692Z,13.88
2023-05-22T04:43:01.554Z,13.90
2023-05-22T04:45:29.141Z,14.25
2023-05-22T04:47:56.753Z,13.65
2023-05-22T04:50:24.015Z,15.52
2023-05-22T04:52:51.042Z,14.27
2023-05-22T04:55:19.156Z,14.30
2023-05-22T04:57:47.269Z,15.52
2023-05-22T05:00:16.876Z,14.27
2023-05-22T05:02:43.846Z,14.25
2023-05-22T05:05:10.757Z,14.20
2023-05-22T05:07:39.133Z,14.35
2023-05-22T05:10:07.394Z,14.95
2023-05-22T05:12:34.588Z,14.70
2023-05-22T05:15:01.665Z,15.27
2023-05-22T05:17:29.045Z,15.40
2023-05-22T05:19:56.104Z,16.63
2023-05-22T05:22:23.439Z,16.10
2023-05-22T05:24:50.412Z,17.25
2023-05-22T05:27:18.046Z,17.40
2023-05-22T05:29:44.995Z,18.17
2023-05-22T05:32:12.989Z,19.50
2023-05-22T05:34:39.881Z,18.50
2023-05-22T05:37:06.802Z,19.17
2023-05-22T05:39:34.138Z,18.67
2023-05-22T05:42:01.214Z,19.52
2023-05-22T05:44:28.640Z,18.17
2023-05-22T05:46:55.541Z,19.88
2023-05-22T05:49:22.550Z,17.80
2023-05-22T05:51:49.954Z,18.80
2023-05-22T05:54:16.789Z,19.17
2023-05-22T05:56:43.850Z,17.42
2023-05-22T05:59:11.485Z,17.65
2023-05-22T06:01:39.808Z,15.05
2023-05-22T06:04:09.032Z,15.05
2023-05-22T06:06:36.411Z,14.27
2023-05-22T06:09:06.182Z,15.43
2023-05-22T06:11:33.696Z,13.75
2023-05-22T06:14:02.873Z,13.20
2023-05-22T06:16:30.022Z,12.60
2023-05-22T06:18:59.172Z,11.85
2023-05-22T06:21:26.150Z,11.95
2023-05-22T06:23:53.165Z,11.48
2023-05-22T06:26:20.269Z,13.23
2023-05-22T06:28:47.378Z,13.15
2023-05-22T06:31:14.386Z,11.95
2023-05-22T06:33:43.299Z,10.55
2023-05-22T06:36:11.666Z,10.32
2023-05-22T06:38:39.257Z,9.02
2023-05-22T06:41:06.487Z,9.68
2023-05-22T06:43:33.532Z,10.05
2023-05-22T06:46:00.489Z,10.13
2023-05-22T06:48:28.321Z,8.60
2023-05-22T06:50:55.682Z,9.38
2023-05-22T06:53:23.898Z,8.98
2023-05-22T06:55:51.115Z,8.55
2023-05-22T06:58:18.678Z,8.70
2023-05-22T07:00:46.279Z,8.38
2023-05-22T07:03:13.447Z,8.65
2023-05-22T07:05:40.580Z,8.73
2023-05-22T07:08:08.455Z,8.05
2023-05-22T07:10:36.482Z,8.05
2023-05-22T07:13:03.907Z,8.23
2023-05-22T07:15:33.687Z,7.93
2023-05-22T07:18:00.638Z,7.38
2023-05-22T07:20:28.277Z,7.28
2023-05-22T07:22:55.733Z,8.07
2023-05-22T07:25:22.617Z,7.57
2023-05-22T07:27:50.750Z,8.90
2023-05-22T07:30:18.764Z,6.78
2023-05-22T07:32:46.108Z,6.97
2023-05-22T07:35:15.967Z,6.97
2023-05-22T07:37:46.208Z,6.95
2023-05-22T07:40:14.070Z,7.60
2023-05-22T07:42:41.726Z,6.65
2023-05-22T07:45:09.435Z,6.97
2023-05-22T07:47:36.969Z,7.05
2023-05-22T07:50:04.659Z,7.70
2023-05-22T07:52:32.813Z,6.95
2023-05-22T07:55:19.561Z,7.03
2023-05-22T07:57:47.400Z,7.30
2023-05-22T08:00:14.799Z,6.72
2023-05-22T08:02:42.721Z,6.45
2023-05-22T08:05:10.736Z,7.38
2023-05-22T08:07:39.472Z,6.85
2023-05-22T08:10:17.794Z,7.30
2023-05-22T08:12:45.474Z,6.70
2023-05-22T08:15:12.562Z,6.65
2023-05-22T08:17:39.594Z,6.93
2023-05-22T08:20:07.584Z,7.38
2023-05-22T08:22:35.302Z,7.03
2023-05-22T08:25:02.442Z,6.18
2023-05-22T08:27:29.537Z,6.25
2023-05-22T08:29:56.480Z,6.75
2023-05-22T08:32:23.395Z,6.38
2023-05-22T08:34:50.525Z,7.15
2023-05-22T08:37:17.541Z,6.80
2023-05-22T08:39:44.441Z,6.95
2023-05-22T08:42:11.453Z,6.60
2023-05-22T08:44:39.131Z,6.53
2023-05-22T08:47:11.316Z,6.68
2023-05-22T08:49:40.018Z,6.57
2023-05-22T08:52:32.928Z,6.70
2023-05-22T08:55:02.442Z,6.63
2023-05-22T08:57:30.183Z,6.50
2023-05-22T08:59:58.316Z,7.15
2023-05-22T09:02:26.208Z,6.43
2023-05-22T09:04:53.177Z,6.50
2023-05-22T09:07:22.071Z,7.32
2023-05-22T09:09:49.751Z,6.40
2023-05-22T09:12:16.857Z,6.20
2023-05-22T09:14:44.688Z,5.97
2023-05-22T09:17:15.396Z,6.47
2023-05-22T09:19:48.534Z,6.80
2023-05-22T09:22:16.609Z,6.78
2023-05-22T09:24:47.017Z,6.28
2023-05-22T09:27:14.004Z,6.72
2023-05-22T09:29:51.280Z,6.15
2023-05-22T09:32:19.737Z,6.43
2023-05-22T09:34:47.054Z,6.50
2023-05-22T09:37:15.157Z,6.80
2023-05-22T09:39:47.065Z,6.60
2023-05-22T09:42:18.006Z,5.93
2023-05-22T09:44:51.828Z,6.05
2023-05-22T09:47:18.852Z,5.25
2023-05-22T09:49:46.228Z,6.25
2023-05-22T09:52:13.164Z,6.75
2023-05-22T09:54:55.178Z,6.68
2023-05-22T09:57:24.747Z,6.70
2023-05-22T09:59:58.369Z,5.63
2023-05-22T10:02:26.912Z,6.22
2023-05-22T10:04:54.744Z,5.90
2023-05-22T10:07:26.829Z,5.95
2023-05-22T10:10:02.146Z,6.05
2023-05-22T10:12:33.690Z,5.68
2023-05-22T10:15:02.646Z,6.57
2023-05-22T10:17:31.677Z,6.20
2023-05-22T10:19:58.887Z,5.90
2023-05-22T10:22:29.109Z,6.15
2023-05-22T10:24:56.299Z,6.22
2023-05-22T10:27:23.192Z,6.15
2023-05-22T10:29:58.593Z,6.28
2023-05-22T10:32:39.920Z,5.97
2023-05-22T10:35:39.071Z,5.95
2023-05-22T10:38:23.032Z,6.10
2023-05-22T10:40:50.883Z,6.10
2023-05-22T10:43:17.887Z,5.50
2023-05-22T10:45:47.074Z,5.68
2023-05-22T10:48:14.397Z,5.68
2023-05-22T10:50:52.857Z,6.30
2023-05-22T10:53:23.900Z,6.45
2023-05-22T10:55:51.693Z,5.78
2023-05-22T10:58:29.257Z,6.00
2023-05-22T11:01:13.709Z,5.95
2023-05-22T11:04:13.374Z,6.00
2023-05-22T11:06:45.766Z,6.10
2023-05-22T11:09:30.223Z,6.23
2023-05-22T11:12:17.151Z,6.28
2023-05-22T11:14:51.351Z,6.38
2023-05-22T11:17:22.492Z,5.80
2023-05-22T11:19:59.262Z,6.00
2023-05-22T11:22:32.169Z,5.90
2023-05-22T11:24:59.770Z,6.40
2023-05-22T11:27:27.081Z,6.00
2023-05-22T11:29:54.781Z,6.03
2023-05-22T11:32:23.652Z,5.57
2023-05-22T11:34:50.673Z,6.05
2023-05-22T11:37:21.528Z,5.60
2023-05-22T11:40:04.470Z,5.50
2023-05-22T11:42:32.487Z,6.65
2023-05-22T11:45:00.116Z,5.00
2023-05-22T11:47:30.079Z,5.63
2023-05-22T11:49:58.256Z,5.57
2023-05-22T11:52:25.598Z,5.90
2023-05-22T11:54:53.086Z,5.43
2023-05-22T11:57:20.795Z,5.82
2023-05-22T11:59:48.478Z,5.82
2023-05-22T12:02:21.530Z,5.68
2023-05-22T12:07:22.460Z,5.43
2023-05-22T12:09:50.561Z,5.90
2023-05-22T12:12:18.361Z,5.28
2023-05-22T12:14:46.172Z,5.18
2023-05-22T12:17:14.491Z,5.30
2023-05-22T12:19:42.089Z,5.38
2023-05-22T12:22:10.216Z,5.22
2023-05-22T12:24:47.208Z,5.45
2023-05-22T12:27:14.957Z,4.72
2023-05-22T12:29:43.053Z,5.50
2023-05-22T12:32:11.661Z,5.63
2023-05-22T12:34:47.044Z,6.00
2023-05-22T12:37:21.270Z,4.93
2023-05-22T12:39:57.277Z,5.13
2023-05-22T12:42:25.589Z,4.78
2023-05-22T12:44:57.012Z,4.32
2023-05-22T12:47:24.881Z,4.80
2023-05-22T12:49:51.980Z,4.50
2023-05-22T12:52:18.926Z,4.72
2023-05-22T12:54:46.410Z,5.03
2023-05-22T12:57:13.412Z,4.70
2023-05-22T12:59:40.934Z,4.45
2023-05-22T13:02:08.119Z,4.93
2023-05-22T13:04:35.223Z,4.68
2023-05-22T13:07:02.205Z,4.22
2023-05-22T13:09:29.276Z,4.80
2023-05-22T13:11:56.477Z,4.70
2023-05-22T13:14:23.372Z,4.95
2023-05-22T13:16:50.158Z,4.78
2023-05-22T13:19:17.108Z,4.50
2023-05-22T13:21:44.155Z,4.88
2023-05-22T13:24:11.116Z,4.15
2023-05-22T13:26:38.000Z,4.35
2023-05-22T13:29:04.938Z,4.70
2023-05-22T13:31:37.178Z,4.60
2023-05-22T13:34:04.907Z,4.95
2023-05-22T13:36:31.942Z,4.32
2023-05-22T13:38:58.839Z,3.92
2023-05-22T13:41:25.811Z,3.95
2023-05-22T13:43:53.926Z,4.68
2023-05-22T13:46:22.001Z,4.57
2023-05-22T13:48:53.819Z,4.60
2023-05-22T13:51:20.732Z,4.72
2023-05-22T13:53:47.534Z,4.10
2023-05-22T13:56:14.737Z,4.18
2023-05-22T13:58:41.638Z,4.40
2023-05-22T14:01:09.858Z,4.22
2023-05-22T14:03:36.751Z,3.97
2023-05-22T14:06:03.894Z,3.85
2023-05-22T14:08:30.743Z,3.90
2023-05-22T14:10:57.735Z,4.18
2023-05-22T14:13:24.568Z,3.70
2023-05-22T14:15:51.382Z,3.75
2023-05-22T14:18:18.328Z,4.07
2023-05-22T14:20:46.267Z,4.07
2023-05-22T14:23:14.109Z,3.70
2023-05-22T14:25:44.475Z,3.80
2023-05-22T14:28:12.192Z,3.72
2023-05-22T14:30:39.269Z,3.60
2023-05-22T14:33:07.224Z,3.67
2023-05-22T14:35:34.216Z,3.63
2023-05-22T14:38:01.752Z,3.70
2023-05-22T14:40:28.772Z,3.97
2023-05-22T14:42:55.757Z,3.40
2023-05-22T14:45:22.861Z,3.40
2023-05-22T14:47:49.964Z,3.40
2023-05-22T14:50:20.160Z,4.10
2023-05-22T14:52:50.622Z,3.70
2023-05-22T14:55:18.022Z,3.95
2023-05-22T14:57:44.965Z,3.58
2023-05-22T15:00:12.770Z,3.63
2023-05-22T15:02:40.103Z,3.55
2023-05-22T15:05:07.836Z,3.60
2023-05-22T15:07:44.059Z,4.18
2023-05-22T15:10:12.859Z,3.45
2023-05-22T15:12:39.802Z,3.70
2023-05-22T15:15:07.164Z,3.83
2023-05-22T15:17:34.166Z,3.90
2023-05-22T15:20:01.326Z,3.85
2023-05-22T15:22:28.477Z,3.47
2023-05-22T15:25:09.198Z,3.75
2023-05-22T15:27:38.354Z,3.88
2023-05-22T15:30:06.609Z,3.90
2023-05-22T15:32:33.611Z,3.95
2023-05-22T15:35:00.691Z,3.50
2023-05-22T15:37:32.018Z,3.53
2023-05-22T15:40:01.453Z,3.78
2023-05-22T15:42:29.652Z,3.58
2023-05-22T15:44:58.206Z,3.58
2023-05-22T15:47:25.394Z,3.92
2023-05-22T15:49:52.908Z,3.78
2023-05-22T15:52:22.834Z,3.45
2023-05-22T15:54:50.716Z,3.58
2023-05-22T15:57:17.691Z,4.00
2023-05-22T15:59:47.428Z,3.85
2023-05-22T16:02:14.451Z,3.55
2023-05-22T16:04:41.430Z,3.70
2023-05-22T16:07:08.363Z,3.70
2023-05-22T16:09:36.118Z,3.83
2023-05-22T16:12:04.152Z,3.90
2023-05-22T16:14:31.439Z,3.67
2023-05-22T16:16:58.330Z,4.38
2023-05-22T16:19:25.317Z,3.90
2023-05-22T16:21:52.234Z,3.85
2023-05-22T16:24:19.062Z,3.88
2023-05-22T16:26:45.935Z,3.80
2023-05-22T16:29:13.088Z,3.53
2023-05-22T16:31:40.016Z,4.28
2023-05-22T16:34:07.066Z,4.15
2023-05-22T16:36:33.875Z,3.80
2023-05-22T16:39:00.966Z,3.60
2023-05-22T16:41:28.141Z,3.67
2023-05-22T16:43:55.058Z,3.90
2023-05-22T16:46:22.267Z,3.60
2023-05-22T16:48:50.358Z,3.40
2023-05-22T16:51:17.441Z,3.83
2023-05-22T16:53:44.380Z,3.90
2023-05-22T16:56:11.381Z,3.47
2023-05-22T16:58:38.836Z,3.45
2023-05-22T17:01:08.606Z,3.70
2023-05-22T17:03:35.939Z,3.78
2023-05-22T17:06:03.221Z,3.70
2023-05-22T17:08:30.582Z,3.60
2023-05-22T17:10:57.495Z,3.83
2023-05-22T17:13:24.407Z,4.05
2023-05-22T17:15:51.980Z,3.47
2023-05-22T17:18:19.904Z,3.55
2023-05-22T17:20:50.652Z,3.75
2023-05-22T17:23:17.819Z,3.97
2023-05-22T17:25:46.669Z,4.38
2023-05-22T17:28:14.969Z,4.20
2023-05-22T17:30:43.267Z,3.85
2023-05-22T17:33:10.973Z,4.40
2023-05-22T17:35:37.898Z,3.97
2023-05-22T17:38:04.997Z,4.38
2023-05-22T17:40:44.025Z,4.13
2023-05-22T17:43:12.159Z,4.43
2023-05-22T17:45:39.429Z,4.43
2023-05-22T17:48:07.717Z,4.15
2023-05-22T17:50:34.718Z,4.28
2023-05-22T17:53:01.615Z,4.53
2023-05-22T17:55:28.814Z,4.15
2023-05-22T17:57:56.097Z,4.72
2023-05-22T18:00:23.153Z,5.10
2023-05-22T18:02:50.486Z,4.57
2023-05-22T18:05:17.532Z,4.57
2023-05-22T18:07:44.404Z,5.28
2023-05-22T18:10:11.401Z,3.95
2023-05-22T18:12:38.700Z,4.60
2023-05-22T18:15:08.478Z,4.88
2023-05-22T18:17:35.696Z,5.00
2023-05-22T18:20:04.378Z,4.20
2023-05-22T18:22:31.486Z,4.50
2023-05-22T18:24:58.323Z,4.20
2023-05-22T18:27:25.431Z,4.88
2023-05-22T18:29:52.279Z,4.72
2023-05-22T18:32:19.179Z,5.22
2023-05-22T18:34:46.489Z,5.03
2023-05-22T18:37:14.015Z,4.85
2023-05-22T18:39:41.114Z,4.50
2023-05-22T18:42:08.212Z,5.35
2023-05-22T18:44:35.157Z,5.43
2023-05-22T18:47:02.059Z,5.10
2023-05-22T18:49:29.381Z,5.93
2023-05-22T18:51:56.220Z,5.75
2023-05-22T18:54:23.323Z,6.20
2023-05-22T18:56:50.854Z,5.43
2023-05-22T18:59:17.924Z,5.55
2023-05-22T19:01:45.503Z,5.53
2023-05-22T19:04:12.385Z,5.50
2023-05-22T19:06:42.176Z,5.93
2023-05-22T19:09:10.037Z,4.97
2023-05-22T19:11:37.052Z,5.85
2023-05-22T19:14:04.008Z,6.20
2023-05-22T19:16:31.003Z,5.80
2023-05-22T19:18:57.921Z,6.15
2023-05-22T19:21:26.327Z,5.97
2023-05-22T19:23:53.221Z,5.85
2023-05-22T19:26:20.180Z,6.35
2023-05-22T19:28:47.100Z,5.95
2023-05-22T19:31:14.045Z,6.10
2023-05-22T19:33:40.931Z,5.65
2023-05-22T19:36:07.873Z,6.30
2023-05-22T19:38:34.824Z,5.65
2023-05-22T19:41:01.698Z,6.07
2023-05-22T19:43:31.282Z,5.82
2023-05-22T19:45:58.452Z,6.20
2023-05-22T19:48:25.696Z,5.97
2023-05-22T19:50:52.739Z,6.40
2023-05-22T19:53:19.575Z,6.53
2023-05-22T19:55:46.544Z,6.22
2023-05-22T19:58:13.658Z,6.93
2023-05-22T20:00:41.113Z,7.00
2023-05-22T20:03:08.419Z,6.18
2023-05-22T20:05:35.524Z,6.38
2023-05-22T20:08:02.424Z,6.88
2023-05-22T20:10:30.433Z,6.30
2023-05-22T20:12:59.307Z,7.13
2023-05-22T20:15:26.142Z,7.20
2023-05-22T20:17:53.539Z,7.00
2023-05-22T20:20:20.887Z,6.93
2023-05-22T20:22:47.838Z,7.40
2023-05-22T20:25:14.740Z,7.00
2023-05-22T20:27:41.625Z,6.55
2023-05-22T20:30:11.436Z,6.65
2023-05-22T20:32:39.306Z,6.95
2023-05-22T20:35:07.251Z,6.47
2023-05-22T20:37:34.927Z,6.57
2023-05-22T20:40:09.429Z,6.45
2023-05-22T20:42:37.649Z,7.35
2023-05-22T20:45:05.633Z,6.18
2023-05-22T20:47:34.664Z,6.50
2023-05-22T20:50:01.940Z,6.10
2023-05-22T20:52:32.044Z,6.93
2023-05-22T20:54:59.014Z,6.70
2023-05-22T20:57:25.838Z,6.55
2023-05-22T20:59:54.158Z,7.07
2023-05-22T21:02:21.140Z,6.22
2023-05-22T21:04:48.026Z,6.70
2023-05-22T21:07:14.834Z,7.57
2023-05-22T21:09:41.886Z,7.07
2023-05-22T21:12:08.743Z,7.38
2023-05-22T21:14:35.640Z,7.68
2023-05-22T21:17:02.511Z,6.95
2023-05-22T21:19:29.617Z,7.55
2023-05-22T21:21:56.497Z,6.97
2023-05-22T21:24:23.367Z,6.88
2023-05-22T21:26:50.266Z,8.15
2023-05-22T21:29:17.104Z,7.85
2023-05-22T21:31:43.959Z,8.32
2023-05-22T21:34:10.923Z,8.25
2023-05-22T21:36:37.874Z,8.05
2023-05-22T21:39:04.690Z,7.47
2023-05-22T21:41:31.507Z,8.43
2023-05-22T21:43:58.421Z,8.02
2023-05-22T21:46:25.329Z,9.18
2023-05-22T21:48:53.652Z,8.38
2023-05-22T21:51:20.651Z,7.25
2023-05-22T21:53:47.590Z,8.85
2023-05-22T21:56:14.472Z,7.43
2023-05-22T21:58:41.294Z,7.97
2023-05-22T22:01:08.202Z,8.40
2023-05-22T22:03:35.187Z,7.95
2023-05-22T22:06:02.166Z,7.80
2023-05-22T22:08:29.430Z,8.27
2023-05-22T22:10:58.272Z,8.60
2023-05-22T22:13:25.185Z,8.32
2023-05-22T22:15:53.410Z,8.20
2023-05-22T22:18:20.524Z,8.63
2023-05-22T22:20:50.180Z,8.00
2023-05-22T22:23:17.188Z,8.82
2023-05-22T22:25:44.003Z,8.57
2023-05-22T22:28:11.376Z,8.25
2023-05-22T22:30:38.414Z,8.50
2023-05-22T22:33:05.429Z,8.70
2023-05-22T22:35:32.388Z,8.02
2023-05-22T22:37:59.242Z,8.57
2023-05-22T22:40:26.772Z,9.20
2023-05-22T22:42:53.958Z,9.75
2023-05-22T22:45:21.079Z,9.32
2023-05-22T22:47:48.262Z,9.35
2023-05-22T22:50:15.155Z,9.13
2023-05-22T22:52:45.519Z,10.05
2023-05-22T22:55:13.407Z,8.70
2023-05-22T22:57:43.297Z,8.77
2023-05-22T23:00:13.264Z,8.38
2023-05-22T23:02:40.795Z,8.52
2023-05-22T23:05:08.561Z,8.88
2023-05-22T23:07:35.773Z,8.73
2023-05-22T23:10:02.834Z,9.25
2023-05-22T23:12:32.996Z,9.52
2023-05-22T23:15:00.030Z,9.77
2023-05-22T23:17:26.869Z,9.90
2023-05-22T23:19:53.724Z,10.05
2023-05-22T23:22:20.543Z,8.88
2023-05-22T23:24:47.357Z,9.48
2023-05-22T23:27:14.716Z,9.77
2023-05-22T23:29:41.536Z,9.85
2023-05-22T23:32:08.414Z,10.13
2023-05-22T23:34:35.280Z,9.63
2023-05-22T23:37:02.088Z,9.00
2023-05-22T23:39:28.993Z,9.23
2023-05-22T23:41:55.824Z,8.55
2023-05-22T23:44:22.727Z,8.82
2023-05-22T23:46:50.003Z,8.52
2023-05-22T23:49:16.892Z,8.50
2023-05-22T23:51:43.701Z,8.57
2023-05-22T23:54:11.276Z,9.40
2023-05-22T23:56:38.122Z,9.40
2023-05-22T23:59:05.032Z,10.50
